sensor_id;sensor_type;location;lat;lon;timestamp;temperature;humidity
5459;DHT22;2752;49.992;8.422;2022-08-05T00:01:12;26.50;1.00
5459;DHT22;2752;49.992;8.422;2022-08-05T00:03:39;26.50;1.00
5459;DHT22;2752;49.992;8.422;2022-08-05T00:06:08;26.30;1.00
5459;DHT22;2752;49.992;8.422;2022-08-05T00:08:35;26.20;1.00
5459;DHT22;2752;49.992;8.422;2022-08-05T00:11:04;26.20;1.00
5459;DHT22;2752;49.992;8.422;2022-08-05T00:13:31;26.10;1.00
5459;DHT22;2752;49.992;8.422;2022-08-05T00:15:59;26.00;1.00
5459;DHT22;2752;49.992;8.422;2022-08-05T00:18:25;26.00;1.00
5459;DHT22;2752;49.992;8.422;2022-08-05T00:20:52;26.00;1.00
5459;DHT22;2752;49.992;8.422;2022-08-05T00:23:22;26.00;1.00
5459;DHT22;2752;49.992;8.422;2022-08-05T00:25:49;25.90;1.00
5459;DHT22;2752;49.992;8.422;2022-08-05T00:28:16;25.90;1.00
5459;DHT22;2752;49.992;8.422;2022-08-05T00:30:43;25.90;1.00
5459;DHT22;2752;49.992;8.422;2022-08-05T00:33:09;25.80;1.00
5459;DHT22;2752;49.992;8.422;2022-08-05T00:35:36;25.80;1.00
5459;DHT22;2752;49.992;8.422;2022-08-05T00:38:03;25.80;1.00
5459;DHT22;2752;49.992;8.422;2022-08-05T00:40:31;25.80;1.00
5459;DHT22;2752;49.992;8.422;2022-08-05T00:42:59;25.70;1.00
5459;DHT22;2752;49.992;8.422;2022-08-05T00:45:26;25.70;1.00
5459;DHT22;2752;49.992;8.422;2022-08-05T00:47:53;25.70;1.00
5459;DHT22;2752;49.992;8.422;2022-08-05T00:50:20;25.60;1.00
5459;DHT22;2752;49.992;8.422;2022-08-05T00:52:46;25.60;1.00
5459;DHT22;2752;49.992;8.422;2022-08-05T00:55:13;25.50;1.00
5459;DHT22;2752;49.992;8.422;2022-08-05T00:57:41;25.50;1.00
5459;DHT22;2752;49.992;8.422;2022-08-05T01:00:09;25.40;1.00
5459;DHT22;2752;49.992;8.422;2022-08-05T01:02:36;25.50;1.00
5459;DHT22;2752;49.992;8.422;2022-08-05T01:05:03;25.40;1.00
5459;DHT22;2752;49.992;8.422;2022-08-05T01:07:30;25.40;1.00
5459;DHT22;2752;49.992;8.422;2022-08-05T01:09:57;25.40;1.00
5459;DHT22;2752;49.992;8.422;2022-08-05T01:12:24;25.40;1.00
5459;DHT22;2752;49.992;8.422;2022-08-05T01:14:56;25.50;1.00
5459;DHT22;2752;49.992;8.422;2022-08-05T01:17:29;25.70;1.00
5459;DHT22;2752;49.992;8.422;2022-08-05T01:20:09;25.70;1.00
5459;DHT22;2752;49.992;8.422;2022-08-05T01:22:46;25.70;1.00
5459;DHT22;2752;49.992;8.422;2022-08-05T01:25:56;25.70;1.00
5459;DHT22;2752;49.992;8.422;2022-08-05T01:28:30;25.80;1.00
5459;DHT22;2752;49.992;8.422;2022-08-05T01:31:00;25.90;1.00
5459;DHT22;2752;49.992;8.422;2022-08-05T01:33:32;25.90;1.00
5459;DHT22;2752;49.992;8.422;2022-08-05T01:36:02;25.90;1.00
5459;DHT22;2752;49.992;8.422;2022-08-05T01:38:33;25.80;1.00
5459;DHT22;2752;49.992;8.422;2022-08-05T01:41:03;25.70;1.00
5459;DHT22;2752;49.992;8.422;2022-08-05T01:43:32;25.40;1.00
5459;DHT22;2752;49.992;8.422;2022-08-05T01:46:01;25.40;1.00
5459;DHT22;2752;49.992;8.422;2022-08-05T01:48:28;25.20;1.00
5459;DHT22;2752;49.992;8.422;2022-08-05T01:50:57;25.10;1.00
5459;DHT22;2752;49.992;8.422;2022-08-05T01:53:24;25.10;1.00
5459;DHT22;2752;49.992;8.422;2022-08-05T01:55:55;24.90;1.00
5459;DHT22;2752;49.992;8.422;2022-08-05T01:58:25;24.80;1.00
5459;DHT22;2752;49.992;8.422;2022-08-05T02:00:56;24.80;1.00
5459;DHT22;2752;49.992;8.422;2022-08-05T02:03:26;24.80;1.00
5459;DHT22;2752;49.992;8.422;2022-08-05T02:05:54;24.80;1.00
5459;DHT22;2752;49.992;8.422;2022-08-05T02:08:21;24.90;1.00
5459;DHT22;2752;49.992;8.422;2022-08-05T02:10:50;24.70;1.00
5459;DHT22;2752;49.992;8.422;2022-08-05T02:13:26;24.90;1.00
5459;DHT22;2752;49.992;8.422;2022-08-05T02:16:01;24.90;1.00
5459;DHT22;2752;49.992;8.422;2022-08-05T02:18:31;25.10;1.00
5459;DHT22;2752;49.992;8.422;2022-08-05T02:21:03;25.00;1.00
5459;DHT22;2752;49.992;8.422;2022-08-05T02:23:34;24.60;1.00
5459;DHT22;2752;49.992;8.422;2022-08-05T02:26:05;24.80;1.00
5459;DHT22;2752;49.992;8.422;2022-08-05T02:28:36;24.80;1.00
5459;DHT22;2752;49.992;8.422;2022-08-05T02:31:08;24.60;1.00
5459;DHT22;2752;49.992;8.422;2022-08-05T02:33:41;24.30;1.00
5459;DHT22;2752;49.992;8.422;2022-08-05T02:36:11;24.10;1.00
5459;DHT22;2752;49.992;8.422;2022-08-05T02:38:40;23.90;1.10
5459;DHT22;2752;49.992;8.422;2022-08-05T02:41:08;23.70;1.00
5459;DHT22;2752;49.992;8.422;2022-08-05T02:43:38;23.60;1.00
5459;DHT22;2752;49.992;8.422;2022-08-05T02:46:08;23.70;4.10
5459;DHT22;2752;49.992;8.422;2022-08-05T02:48:36;23.60;4.00
5459;DHT22;2752;49.992;8.422;2022-08-05T02:51:03;23.50;7.20
5459;DHT22;2752;49.992;8.422;2022-08-05T02:53:31;23.30;9.30
5459;DHT22;2752;49.992;8.422;2022-08-05T02:55:59;23.20;13.60
5459;DHT22;2752;49.992;8.422;2022-08-05T02:58:27;22.90;14.40
5459;DHT22;2752;49.992;8.422;2022-08-05T03:00:55;22.90;17.70
5459;DHT22;2752;49.992;8.422;2022-08-05T03:03:25;22.80;21.90
5459;DHT22;2752;49.992;8.422;2022-08-05T03:05:54;22.80;24.90
5459;DHT22;2752;49.992;8.422;2022-08-05T03:08:22;22.80;27.30
5459;DHT22;2752;49.992;8.422;2022-08-05T03:13:17;22.60;30.50
5459;DHT22;2752;49.992;8.422;2022-08-05T03:15:45;22.50;27.10
5459;DHT22;2752;49.992;8.422;2022-08-05T03:18:13;22.50;27.90
5459;DHT22;2752;49.992;8.422;2022-08-05T03:20:41;22.60;27.90
5459;DHT22;2752;49.992;8.422;2022-08-05T03:23:09;22.60;28.40
5459;DHT22;2752;49.992;8.422;2022-08-05T03:25:36;22.50;28.60
5459;DHT22;2752;49.992;8.422;2022-08-05T03:28:04;22.50;31.70
5459;DHT22;2752;49.992;8.422;2022-08-05T03:30:32;22.50;38.10
5459;DHT22;2752;49.992;8.422;2022-08-05T03:32:59;22.70;37.50
5459;DHT22;2752;49.992;8.422;2022-08-05T03:35:27;22.70;41.20
5459;DHT22;2752;49.992;8.422;2022-08-05T03:37:57;22.60;44.90
5459;DHT22;2752;49.992;8.422;2022-08-05T03:40:24;22.50;52.50
5459;DHT22;2752;49.992;8.422;2022-08-05T03:42:51;22.30;63.40
5459;DHT22;2752;49.992;8.422;2022-08-05T03:45:18;22.30;66.70
5459;DHT22;2752;49.992;8.422;2022-08-05T03:47:44;22.20;71.20
5459;DHT22;2752;49.992;8.422;2022-08-05T03:50:11;22.10;76.80
5459;DHT22;2752;49.992;8.422;2022-08-05T03:52:46;22.10;80.70
5459;DHT22;2752;49.992;8.422;2022-08-05T03:55:20;21.90;82.20
5459;DHT22;2752;49.992;8.422;2022-08-05T03:57:48;21.80;84.40
5459;DHT22;2752;49.992;8.422;2022-08-05T04:00:18;21.90;85.30
5459;DHT22;2752;49.992;8.422;2022-08-05T04:02:48;22.00;85.80
5459;DHT22;2752;49.992;8.422;2022-08-05T04:05:18;22.10;85.10
5459;DHT22;2752;49.992;8.422;2022-08-05T04:07:45;22.30;84.80
5459;DHT22;2752;49.992;8.422;2022-08-05T04:10:12;22.30;84.40
5459;DHT22;2752;49.992;8.422;2022-08-05T04:12:40;22.00;82.50
5459;DHT22;2752;49.992;8.422;2022-08-05T04:15:09;22.30;78.80
5459;DHT22;2752;49.992;8.422;2022-08-05T04:17:36;22.40;74.70
5459;DHT22;2752;49.992;8.422;2022-08-05T04:20:03;22.30;72.40
5459;DHT22;2752;49.992;8.422;2022-08-05T04:22:30;22.40;68.40
5459;DHT22;2752;49.992;8.422;2022-08-05T04:24:57;22.30;69.70
5459;DHT22;2752;49.992;8.422;2022-08-05T04:27:23;22.50;71.20
5459;DHT22;2752;49.992;8.422;2022-08-05T04:29:51;22.30;65.70
5459;DHT22;2752;49.992;8.422;2022-08-05T04:32:18;22.30;64.70
5459;DHT22;2752;49.992;8.422;2022-08-05T04:34:45;22.30;64.20
5459;DHT22;2752;49.992;8.422;2022-08-05T04:37:11;22.40;65.60
5459;DHT22;2752;49.992;8.422;2022-08-05T04:39:38;22.30;62.80
5459;DHT22;2752;49.992;8.422;2022-08-05T04:42:05;22.30;59.10
5459;DHT22;2752;49.992;8.422;2022-08-05T04:44:32;22.40;60.10
5459;DHT22;2752;49.992;8.422;2022-08-05T04:47:00;22.30;61.20
5459;DHT22;2752;49.992;8.422;2022-08-05T04:49:27;22.40;61.00
5459;DHT22;2752;49.992;8.422;2022-08-05T04:51:53;22.40;61.70
5459;DHT22;2752;49.992;8.422;2022-08-05T04:54:20;22.30;63.40
5459;DHT22;2752;49.992;8.422;2022-08-05T04:56:47;22.30;60.40
5459;DHT22;2752;49.992;8.422;2022-08-05T04:59:13;22.30;61.30
5459;DHT22;2752;49.992;8.422;2022-08-05T05:01:40;22.40;58.90
5459;DHT22;2752;49.992;8.422;2022-08-05T05:04:08;22.40;59.00
5459;DHT22;2752;49.992;8.422;2022-08-05T05:06:35;22.30;59.40
5459;DHT22;2752;49.992;8.422;2022-08-05T05:09:02;22.50;62.60
5459;DHT22;2752;49.992;8.422;2022-08-05T05:11:29;22.60;53.20
5459;DHT22;2752;49.992;8.422;2022-08-05T05:13:55;22.70;49.80
5459;DHT22;2752;49.992;8.422;2022-08-05T05:16:22;22.70;52.50
5459;DHT22;2752;49.992;8.422;2022-08-05T05:18:48;22.70;51.80
5459;DHT22;2752;49.992;8.422;2022-08-05T05:21:16;22.70;50.70
5459;DHT22;2752;49.992;8.422;2022-08-05T05:23:43;22.70;50.70
5459;DHT22;2752;49.992;8.422;2022-08-05T05:26:10;22.80;50.60
5459;DHT22;2752;49.992;8.422;2022-08-05T05:28:36;22.80;51.20
5459;DHT22;2752;49.992;8.422;2022-08-05T05:31:03;22.80;54.40
5459;DHT22;2752;49.992;8.422;2022-08-05T05:33:30;23.00;49.40
5459;DHT22;2752;49.992;8.422;2022-08-05T05:35:56;23.00;54.20
5459;DHT22;2752;49.992;8.422;2022-08-05T05:38:24;23.10;54.30
5459;DHT22;2752;49.992;8.422;2022-08-05T05:40:51;23.00;54.30
5459;DHT22;2752;49.992;8.422;2022-08-05T05:43:18;23.10;55.70
5459;DHT22;2752;49.992;8.422;2022-08-05T05:45:47;23.30;54.30
5459;DHT22;2752;49.992;8.422;2022-08-05T05:48:13;23.20;54.30
5459;DHT22;2752;49.992;8.422;2022-08-05T05:50:40;23.00;58.70
5459;DHT22;2752;49.992;8.422;2022-08-05T05:53:07;23.00;63.20
5459;DHT22;2752;49.992;8.422;2022-08-05T05:55:35;23.00;67.10
5459;DHT22;2752;49.992;8.422;2022-08-05T05:58:01;23.00;68.70
5459;DHT22;2752;49.992;8.422;2022-08-05T06:00:28;23.00;69.50
5459;DHT22;2752;49.992;8.422;2022-08-05T06:02:55;23.10;69.90
5459;DHT22;2752;49.992;8.422;2022-08-05T06:05:21;23.10;71.90
5459;DHT22;2752;49.992;8.422;2022-08-05T06:07:48;23.10;74.30
5459;DHT22;2752;49.992;8.422;2022-08-05T06:10:15;23.10;74.80
5459;DHT22;2752;49.992;8.422;2022-08-05T06:12:43;23.10;77.20
5459;DHT22;2752;49.992;8.422;2022-08-05T06:15:10;23.40;79.10
5459;DHT22;2752;49.992;8.422;2022-08-05T06:17:37;23.20;81.60
5459;DHT22;2752;49.992;8.422;2022-08-05T06:20:04;23.40;82.10
5459;DHT22;2752;49.992;8.422;2022-08-05T06:22:32;23.30;85.90
5459;DHT22;2752;49.992;8.422;2022-08-05T06:24:59;22.40;84.80
5459;DHT22;2752;49.992;8.422;2022-08-05T06:27:26;23.40;99.90
5459;DHT22;2752;49.992;8.422;2022-08-05T06:29:55;23.40;97.70
5459;DHT22;2752;49.992;8.422;2022-08-05T06:32:21;23.40;96.80
5459;DHT22;2752;49.992;8.422;2022-08-05T06:34:48;23.50;94.30
5459;DHT22;2752;49.992;8.422;2022-08-05T06:37:14;23.60;92.10
5459;DHT22;2752;49.992;8.422;2022-08-05T06:39:41;23.60;86.20
5459;DHT22;2752;49.992;8.422;2022-08-05T06:42:08;23.40;89.10
5459;DHT22;2752;49.992;8.422;2022-08-05T06:44:35;23.30;87.60
5459;DHT22;2752;49.992;8.422;2022-08-05T06:47:03;23.40;91.40
5459;DHT22;2752;49.992;8.422;2022-08-05T06:49:29;23.30;91.10
5459;DHT22;2752;49.992;8.422;2022-08-05T06:51:56;23.60;96.00
5459;DHT22;2752;49.992;8.422;2022-08-05T06:54:23;23.50;96.00
5459;DHT22;2752;49.992;8.422;2022-08-05T06:56:50;23.60;97.20
5459;DHT22;2752;49.992;8.422;2022-08-05T06:59:16;23.60;94.80
5459;DHT22;2752;49.992;8.422;2022-08-05T07:01:43;23.60;93.00
5459;DHT22;2752;49.992;8.422;2022-08-05T07:04:11;23.80;88.00
5459;DHT22;2752;49.992;8.422;2022-08-05T07:06:37;23.80;82.20
5459;DHT22;2752;49.992;8.422;2022-08-05T07:09:04;24.20;84.60
5459;DHT22;2752;49.992;8.422;2022-08-05T07:11:32;23.70;86.00
5459;DHT22;2752;49.992;8.422;2022-08-05T07:13:59;23.70;86.80
5459;DHT22;2752;49.992;8.422;2022-08-05T07:16:43;23.60;85.40
5459;DHT22;2752;49.992;8.422;2022-08-05T07:19:19;23.60;84.70
5459;DHT22;2752;49.992;8.422;2022-08-05T07:21:47;23.80;82.90
5459;DHT22;2752;49.992;8.422;2022-08-05T07:24:15;24.00;79.40
5459;DHT22;2752;49.992;8.422;2022-08-05T07:26:42;23.70;79.90
5459;DHT22;2752;49.992;8.422;2022-08-05T07:29:09;24.00;77.70
5459;DHT22;2752;49.992;8.422;2022-08-05T07:31:35;23.70;77.90
5459;DHT22;2752;49.992;8.422;2022-08-05T07:34:03;23.70;74.90
5459;DHT22;2752;49.992;8.422;2022-08-05T07:36:31;23.70;73.80
5459;DHT22;2752;49.992;8.422;2022-08-05T07:38:58;23.70;67.20
5459;DHT22;2752;49.992;8.422;2022-08-05T07:41:26;23.80;70.70
5459;DHT22;2752;49.992;8.422;2022-08-05T07:43:53;24.00;70.40
5459;DHT22;2752;49.992;8.422;2022-08-05T07:46:20;23.90;69.30
5459;DHT22;2752;49.992;8.422;2022-08-05T07:48:47;24.00;70.30
5459;DHT22;2752;49.992;8.422;2022-08-05T07:51:14;24.00;69.20
5459;DHT22;2752;49.992;8.422;2022-08-05T07:53:42;24.00;68.00
5459;DHT22;2752;49.992;8.422;2022-08-05T07:56:09;24.40;65.30
5459;DHT22;2752;49.992;8.422;2022-08-05T07:58:35;24.00;65.10
5459;DHT22;2752;49.992;8.422;2022-08-05T08:01:02;23.80;64.70
5459;DHT22;2752;49.992;8.422;2022-08-05T08:03:29;23.90;66.20
5459;DHT22;2752;49.992;8.422;2022-08-05T08:05:56;23.90;65.50
5459;DHT22;2752;49.992;8.422;2022-08-05T08:08:22;24.00;65.70
5459;DHT22;2752;49.992;8.422;2022-08-05T08:10:50;24.10;65.20
5459;DHT22;2752;49.992;8.422;2022-08-05T08:13:20;24.30;63.40
5459;DHT22;2752;49.992;8.422;2022-08-05T08:15:46;24.40;58.00
5459;DHT22;2752;49.992;8.422;2022-08-05T08:18:13;24.50;54.20
5459;DHT22;2752;49.992;8.422;2022-08-05T08:20:40;24.50;51.40
5459;DHT22;2752;49.992;8.422;2022-08-05T08:23:06;24.60;49.80
5459;DHT22;2752;49.992;8.422;2022-08-05T08:25:33;24.60;45.60
5459;DHT22;2752;49.992;8.422;2022-08-05T08:28:01;24.60;44.80
5459;DHT22;2752;49.992;8.422;2022-08-05T08:30:28;24.70;46.40
5459;DHT22;2752;49.992;8.422;2022-08-05T08:32:54;24.50;44.10
5459;DHT22;2752;49.992;8.422;2022-08-05T08:35:21;24.60;46.80
5459;DHT22;2752;49.992;8.422;2022-08-05T08:37:48;24.70;38.90
5459;DHT22;2752;49.992;8.422;2022-08-05T08:40:15;25.00;39.90
5459;DHT22;2752;49.992;8.422;2022-08-05T08:42:45;24.90;35.80
5459;DHT22;2752;49.992;8.422;2022-08-05T08:45:15;25.20;23.20
5459;DHT22;2752;49.992;8.422;2022-08-05T08:47:43;25.30;30.70
5459;DHT22;2752;49.992;8.422;2022-08-05T08:50:12;25.50;29.20
5459;DHT22;2752;49.992;8.422;2022-08-05T08:52:41;25.40;23.00
5459;DHT22;2752;49.992;8.422;2022-08-05T08:55:08;25.60;22.60
5459;DHT22;2752;49.992;8.422;2022-08-05T08:57:35;25.80;21.00
5459;DHT22;2752;49.992;8.422;2022-08-05T09:00:03;25.50;14.80
5459;DHT22;2752;49.992;8.422;2022-08-05T09:02:32;25.80;19.70
5459;DHT22;2752;49.992;8.422;2022-08-05T09:04:59;25.70;19.40
5459;DHT22;2752;49.992;8.422;2022-08-05T09:07:25;25.70;18.30
5459;DHT22;2752;49.992;8.422;2022-08-05T09:09:52;25.70;17.60
5459;DHT22;2752;49.992;8.422;2022-08-05T09:12:19;25.70;18.00
5459;DHT22;2752;49.992;8.422;2022-08-05T09:14:46;25.70;17.30
5459;DHT22;2752;49.992;8.422;2022-08-05T09:17:12;25.90;15.40
5459;DHT22;2752;49.992;8.422;2022-08-05T09:19:41;26.00;13.10
5459;DHT22;2752;49.992;8.422;2022-08-05T09:22:08;26.10;11.90
5459;DHT22;2752;49.992;8.422;2022-08-05T09:24:34;25.90;7.60
5459;DHT22;2752;49.992;8.422;2022-08-05T09:27:07;25.90;1.00
5459;DHT22;2752;49.992;8.422;2022-08-05T09:29:39;25.90;1.00
5459;DHT22;2752;49.992;8.422;2022-08-05T09:32:07;25.80;1.00
5459;DHT22;2752;49.992;8.422;2022-08-05T09:34:51;25.90;1.00
5459;DHT22;2752;49.992;8.422;2022-08-05T09:37:19;25.60;1.00
5459;DHT22;2752;49.992;8.422;2022-08-05T09:39:46;25.70;1.00
5459;DHT22;2752;49.992;8.422;2022-08-05T09:42:13;25.70;1.00
5459;DHT22;2752;49.992;8.422;2022-08-05T09:44:42;25.70;1.00
5459;DHT22;2752;49.992;8.422;2022-08-05T09:47:12;25.70;1.00
5459;DHT22;2752;49.992;8.422;2022-08-05T09:49:40;25.80;1.00
5459;DHT22;2752;49.992;8.422;2022-08-05T09:52:23;26.00;1.00
5459;DHT22;2752;49.992;8.422;2022-08-05T09:54:58;26.00;1.00
5459;DHT22;2752;49.992;8.422;2022-08-05T09:57:29;25.90;1.00
5459;DHT22;2752;49.992;8.422;2022-08-05T09:59:58;25.90;1.00
5459;DHT22;2752;49.992;8.422;2022-08-05T10:02:32;25.90;1.00
5459;DHT22;2752;49.992;8.422;2022-08-05T10:05:07;26.00;1.00
5459;DHT22;2752;49.992;8.422;2022-08-05T10:07:59;26.00;1.00
5459;DHT22;2752;49.992;8.422;2022-08-05T10:10:32;26.10;1.00
5459;DHT22;2752;49.992;8.422;2022-08-05T10:13:02;26.10;1.00
5459;DHT22;2752;49.992;8.422;2022-08-05T10:15:30;26.20;1.00
5459;DHT22;2752;49.992;8.422;2022-08-05T10:18:07;26.10;1.00
5459;DHT22;2752;49.992;8.422;2022-08-05T10:20:36;26.30;1.00
5459;DHT22;2752;49.992;8.422;2022-08-05T10:23:06;26.30;1.00
5459;DHT22;2752;49.992;8.422;2022-08-05T10:25:32;26.50;1.00
5459;DHT22;2752;49.992;8.422;2022-08-05T10:28:00;26.10;1.00
5459;DHT22;2752;49.992;8.422;2022-08-05T10:30:27;26.30;1.00
5459;DHT22;2752;49.992;8.422;2022-08-05T10:32:56;26.30;1.00
5459;DHT22;2752;49.992;8.422;2022-08-05T10:35:24;26.40;1.00
5459;DHT22;2752;49.992;8.422;2022-08-05T10:37:51;26.40;1.00
5459;DHT22;2752;49.992;8.422;2022-08-05T10:40:25;26.40;1.00
5459;DHT22;2752;49.992;8.422;2022-08-05T10:42:57;26.20;1.00
5459;DHT22;2752;49.992;8.422;2022-08-05T10:45:27;26.30;1.00
5459;DHT22;2752;49.992;8.422;2022-08-05T10:47:55;26.40;1.00
5459;DHT22;2752;49.992;8.422;2022-08-05T10:50:21;26.50;1.00
5459;DHT22;2752;49.992;8.422;2022-08-05T10:52:49;26.60;1.00
5459;DHT22;2752;49.992;8.422;2022-08-05T10:55:23;26.50;1.00
5459;DHT22;2752;49.992;8.422;2022-08-05T10:58:05;26.80;1.00
5459;DHT22;2752;49.992;8.422;2022-08-05T11:00:32;26.90;1.00
5459;DHT22;2752;49.992;8.422;2022-08-05T11:03:09;27.10;1.00
5459;DHT22;2752;49.992;8.422;2022-08-05T11:05:37;26.80;1.00
5459;DHT22;2752;49.992;8.422;2022-08-05T11:08:05;26.50;1.00
5459;DHT22;2752;49.992;8.422;2022-08-05T11:10:34;26.60;1.00
5459;DHT22;2752;49.992;8.422;2022-08-05T11:13:03;26.60;1.00
5459;DHT22;2752;49.992;8.422;2022-08-05T11:15:31;26.30;1.00
5459;DHT22;2752;49.992;8.422;2022-08-05T11:18:06;26.20;1.00
5459;DHT22;2752;49.992;8.422;2022-08-05T11:20:41;26.10;1.00
5459;DHT22;2752;49.992;8.422;2022-08-05T11:23:27;26.00;1.00
5459;DHT22;2752;49.992;8.422;2022-08-05T11:26:06;25.90;1.00
5459;DHT22;2752;49.992;8.422;2022-08-05T11:28:51;25.80;1.00
5459;DHT22;2752;49.992;8.422;2022-08-05T11:31:23;25.90;1.00
5459;DHT22;2752;49.992;8.422;2022-08-05T11:33:57;26.00;1.00
5459;DHT22;2752;49.992;8.422;2022-08-05T11:36:45;26.60;1.00
5459;DHT22;2752;49.992;8.422;2022-08-05T11:39:13;26.50;1.00
5459;DHT22;2752;49.992;8.422;2022-08-05T11:41:49;26.60;1.00
5459;DHT22;2752;49.992;8.422;2022-08-05T11:44:16;26.70;1.00
5459;DHT22;2752;49.992;8.422;2022-08-05T11:46:47;26.90;1.00
5459;DHT22;2752;49.992;8.422;2022-08-05T11:49:15;27.10;1.00
5459;DHT22;2752;49.992;8.422;2022-08-05T11:51:42;27.20;1.00
5459;DHT22;2752;49.992;8.422;2022-08-05T11:54:10;27.20;1.00
5459;DHT22;2752;49.992;8.422;2022-08-05T11:56:47;27.40;1.00
5459;DHT22;2752;49.992;8.422;2022-08-05T11:59:15;27.60;1.00
5459;DHT22;2752;49.992;8.422;2022-08-05T12:01:55;27.80;1.00
5459;DHT22;2752;49.992;8.422;2022-08-05T12:04:24;27.90;1.00
5459;DHT22;2752;49.992;8.422;2022-08-05T12:06:51;27.90;1.00
5459;DHT22;2752;49.992;8.422;2022-08-05T12:09:22;28.00;1.00
5459;DHT22;2752;49.992;8.422;2022-08-05T12:11:51;28.00;1.00
5459;DHT22;2752;49.992;8.422;2022-08-05T12:14:18;28.10;1.00
5459;DHT22;2752;49.992;8.422;2022-08-05T12:16:45;28.30;1.00
5459;DHT22;2752;49.992;8.422;2022-08-05T12:19:13;28.20;1.00
5459;DHT22;2752;49.992;8.422;2022-08-05T12:21:46;28.40;1.00
5459;DHT22;2752;49.992;8.422;2022-08-05T12:24:15;28.00;1.00
5459;DHT22;2752;49.992;8.422;2022-08-05T12:26:44;28.00;1.00
5459;DHT22;2752;49.992;8.422;2022-08-05T12:29:13;28.00;1.00
5459;DHT22;2752;49.992;8.422;2022-08-05T12:31:44;28.20;1.00
5459;DHT22;2752;49.992;8.422;2022-08-05T12:34:11;28.10;1.00
5459;DHT22;2752;49.992;8.422;2022-08-05T12:36:38;28.20;1.00
5459;DHT22;2752;49.992;8.422;2022-08-05T12:39:05;27.90;1.00
5459;DHT22;2752;49.992;8.422;2022-08-05T12:41:33;27.50;1.00
5459;DHT22;2752;49.992;8.422;2022-08-05T12:44:03;27.00;1.00
5459;DHT22;2752;49.992;8.422;2022-08-05T12:46:33;27.20;1.00
5459;DHT22;2752;49.992;8.422;2022-08-05T12:49:05;27.50;1.00
5459;DHT22;2752;49.992;8.422;2022-08-05T12:51:42;27.00;1.00
5459;DHT22;2752;49.992;8.422;2022-08-05T12:54:09;27.20;1.00
5459;DHT22;2752;49.992;8.422;2022-08-05T12:56:40;27.10;1.00
5459;DHT22;2752;49.992;8.422;2022-08-05T12:59:14;27.10;1.00
5459;DHT22;2752;49.992;8.422;2022-08-05T13:01:52;27.00;1.00
5459;DHT22;2752;49.992;8.422;2022-08-05T13:04:19;26.70;1.00
5459;DHT22;2752;49.992;8.422;2022-08-05T13:06:46;27.20;1.00
5459;DHT22;2752;49.992;8.422;2022-08-05T13:09:14;26.80;1.00
5459;DHT22;2752;49.992;8.422;2022-08-05T13:11:42;26.70;1.00
5459;DHT22;2752;49.992;8.422;2022-08-05T13:14:10;26.70;1.00
5459;DHT22;2752;49.992;8.422;2022-08-05T13:16:49;26.80;1.00
5459;DHT22;2752;49.992;8.422;2022-08-05T13:19:16;26.90;1.00
5459;DHT22;2752;49.992;8.422;2022-08-05T13:21:45;26.80;1.00
5459;DHT22;2752;49.992;8.422;2022-08-05T13:24:12;26.90;1.00
5459;DHT22;2752;49.992;8.422;2022-08-05T13:26:39;27.10;1.00
5459;DHT22;2752;49.992;8.422;2022-08-05T13:29:05;27.10;1.00
5459;DHT22;2752;49.992;8.422;2022-08-05T13:31:32;27.20;1.00
5459;DHT22;2752;49.992;8.422;2022-08-05T13:34:00;27.30;1.00
5459;DHT22;2752;49.992;8.422;2022-08-05T13:36:27;27.20;1.00
5459;DHT22;2752;49.992;8.422;2022-08-05T13:38:53;26.80;1.00
5459;DHT22;2752;49.992;8.422;2022-08-05T13:41:20;26.60;1.00
5459;DHT22;2752;49.992;8.422;2022-08-05T13:43:47;26.50;1.00
5459;DHT22;2752;49.992;8.422;2022-08-05T13:46:14;26.30;1.00
5459;DHT22;2752;49.992;8.422;2022-08-05T13:48:41;26.30;1.00
5459;DHT22;2752;49.992;8.422;2022-08-05T13:51:10;25.90;1.00
5459;DHT22;2752;49.992;8.422;2022-08-05T13:53:38;25.70;1.00
5459;DHT22;2752;49.992;8.422;2022-08-05T13:56:05;25.60;1.00
5459;DHT22;2752;49.992;8.422;2022-08-05T13:58:31;25.70;1.00
5459;DHT22;2752;49.992;8.422;2022-08-05T14:00:58;25.90;1.00
5459;DHT22;2752;49.992;8.422;2022-08-05T14:03:25;25.60;1.00
5459;DHT22;2752;49.992;8.422;2022-08-05T14:05:52;25.60;1.00
5459;DHT22;2752;49.992;8.422;2022-08-05T14:08:20;25.60;1.00
5459;DHT22;2752;49.992;8.422;2022-08-05T14:10:47;25.40;1.00
5459;DHT22;2752;49.992;8.422;2022-08-05T14:13:13;25.40;1.00
5459;DHT22;2752;49.992;8.422;2022-08-05T14:15:40;25.40;1.00
5459;DHT22;2752;49.992;8.422;2022-08-05T14:18:07;25.40;1.00
5459;DHT22;2752;49.992;8.422;2022-08-05T14:20:33;24.90;1.00
5459;DHT22;2752;49.992;8.422;2022-08-05T14:23:00;24.70;1.00
5459;DHT22;2752;49.992;8.422;2022-08-05T14:25:28;24.60;1.00
5459;DHT22;2752;49.992;8.422;2022-08-05T14:27:55;24.40;1.00
5459;DHT22;2752;49.992;8.422;2022-08-05T14:30:21;24.40;1.00
5459;DHT22;2752;49.992;8.422;2022-08-05T14:32:49;24.30;1.00
5459;DHT22;2752;49.992;8.422;2022-08-05T14:35:16;24.30;1.00
5459;DHT22;2752;49.992;8.422;2022-08-05T14:37:42;24.20;1.00
5459;DHT22;2752;49.992;8.422;2022-08-05T14:40:10;24.00;1.00
5459;DHT22;2752;49.992;8.422;2022-08-05T14:42:38;24.00;1.00
5459;DHT22;2752;49.992;8.422;2022-08-05T14:45:07;23.80;1.00
5459;DHT22;2752;49.992;8.422;2022-08-05T14:47:34;23.70;1.00
5459;DHT22;2752;49.992;8.422;2022-08-05T14:50:01;23.60;1.00
5459;DHT22;2752;49.992;8.422;2022-08-05T14:52:28;23.60;1.00
5459;DHT22;2752;49.992;8.422;2022-08-05T14:54:54;23.40;1.00
5459;DHT22;2752;49.992;8.422;2022-08-05T14:57:21;23.40;1.00
5459;DHT22;2752;49.992;8.422;2022-08-05T14:59:49;23.30;1.00
5459;DHT22;2752;49.992;8.422;2022-08-05T15:02:15;23.30;1.00
5459;DHT22;2752;49.992;8.422;2022-08-05T15:04:42;23.30;1.00
5459;DHT22;2752;49.992;8.422;2022-08-05T15:07:09;23.30;1.00
5459;DHT22;2752;49.992;8.422;2022-08-05T15:09:36;23.50;1.00
5459;DHT22;2752;49.992;8.422;2022-08-05T15:12:03;23.20;1.00
5459;DHT22;2752;49.992;8.422;2022-08-05T15:14:30;23.90;1.00
5459;DHT22;2752;49.992;8.422;2022-08-05T15:16:57;23.20;1.00
5459;DHT22;2752;49.992;8.422;2022-08-05T15:19:24;23.20;1.00
5459;DHT22;2752;49.992;8.422;2022-08-05T15:21:51;23.10;1.00
5459;DHT22;2752;49.992;8.422;2022-08-05T15:24:18;23.00;1.00
5459;DHT22;2752;49.992;8.422;2022-08-05T15:26:45;22.90;1.00
5459;DHT22;2752;49.992;8.422;2022-08-05T15:29:11;23.00;1.00
5459;DHT22;2752;49.992;8.422;2022-08-05T15:31:38;22.80;1.00
5459;DHT22;2752;49.992;8.422;2022-08-05T15:34:06;22.80;1.00
5459;DHT22;2752;49.992;8.422;2022-08-05T15:36:33;23.00;1.00
5459;DHT22;2752;49.992;8.422;2022-08-05T15:38:59;23.10;1.00
5459;DHT22;2752;49.992;8.422;2022-08-05T15:41:26;23.10;1.00
5459;DHT22;2752;49.992;8.422;2022-08-05T15:43:52;23.00;1.00
5459;DHT22;2752;49.992;8.422;2022-08-05T15:46:19;22.80;1.00
5459;DHT22;2752;49.992;8.422;2022-08-05T15:48:47;23.10;1.00
5459;DHT22;2752;49.992;8.422;2022-08-05T15:51:15;23.50;1.00
5459;DHT22;2752;49.992;8.422;2022-08-05T15:53:47;23.10;1.00
5459;DHT22;2752;49.992;8.422;2022-08-05T15:56:13;23.00;1.00
5459;DHT22;2752;49.992;8.422;2022-08-05T15:58:40;23.00;1.00
5459;DHT22;2752;49.992;8.422;2022-08-05T16:01:07;23.00;1.00
5459;DHT22;2752;49.992;8.422;2022-08-05T16:03:38;22.80;1.00
5459;DHT22;2752;49.992;8.422;2022-08-05T16:06:05;23.00;1.00
5459;DHT22;2752;49.992;8.422;2022-08-05T16:08:33;22.80;1.00
5459;DHT22;2752;49.992;8.422;2022-08-05T16:11:00;22.90;1.00
5459;DHT22;2752;49.992;8.422;2022-08-05T16:13:27;23.10;1.00
5459;DHT22;2752;49.992;8.422;2022-08-05T16:15:54;23.00;1.00
5459;DHT22;2752;49.992;8.422;2022-08-05T16:18:20;22.90;1.00
5459;DHT22;2752;49.992;8.422;2022-08-05T16:20:47;23.00;1.00
5459;DHT22;2752;49.992;8.422;2022-08-05T16:23:14;22.70;1.00